Time;durP1;ratioP1;P1;durP2;ratioP2;P2;SDS_P1;SDS_P2;PMS_P1;PMS_P2;Temp;Humidity;BMP_temperature;BMP_pressure;BME280_temperature;BME280_humidity;BME280_pressure;Samples;Min_cycle;Max_cycle;Signal;HPM_P1;HPM_P2
2022/01/16 00:04:09;;;;;;;33.97;16.33;;;3.80;99.90;;;;;;6303479;22;20009;-88
2022/01/16 00:06:42;;;;;;;39.25;16.63;;;3.80;99.90;;;;;;6275963;22;20011;-91
2022/01/16 00:09:08;;;;;;;40.50;17.48;;;5.00;99.90;;;;;;6276208;22;19999;-91
2022/01/16 00:11:37;;;;;;;39.53;17.50;;;4.30;99.90;;;;;;6276553;22;20465;-90
2022/01/16 00:14:04;;;;;;;40.30;17.45;;;5.30;99.90;;;;;;6276200;22;20007;-90
2022/01/16 00:16:30;;;;;;;48.50;20.10;;;3.90;99.90;;;;;;6275772;22;20003;-89
2022/01/16 00:18:57;;;;;;;44.80;19.30;;;4.00;99.90;;;;;;6277061;22;20022;-91
2022/01/16 00:21:26;;;;;;;41.20;17.20;;;4.20;99.90;;;;;;6286651;22;20375;-90
2022/01/16 00:23:53;;;;;;;49.20;19.80;;;4.50;99.90;;;;;;6286160;22;20387;-89
2022/01/16 00:26:20;;;;;;;36.53;16.67;;;4.40;99.90;;;;;;6315261;22;20006;-90
2022/01/16 00:28:46;;;;;;;42.53;18.55;;;5.40;99.90;;;;;;6304320;22;20033;-90
2022/01/16 00:31:13;;;;;;;50.03;18.42;;;3.80;99.90;;;;;;6276883;22;20003;-89
2022/01/16 00:33:42;;;;;;;52.80;18.23;;;5.10;99.90;;;;;;6303117;22;20027;-90
2022/01/16 00:36:08;;;;;;;42.75;16.75;;;3.80;99.90;;;;;;6275783;22;20011;-90
2022/01/16 00:38:34;;;;;;;37.83;16.55;;;;;;;;;;6303820;22;20419;-90
2022/01/16 00:41:01;;;;;;;41.30;17.67;;;3.80;99.90;;;;;;6276248;22;20003;-88
2022/01/16 00:43:27;;;;;;;37.17;17.15;;;4.80;99.90;;;;;;6303122;22;20027;-91
2022/01/16 00:45:52;;;;;;;43.85;16.55;;;3.90;99.90;;;;;;6302961;22;20060;-90
2022/01/16 00:48:18;;;;;;;46.38;17.83;;;3.90;99.90;;;;;;6303191;22;20393;-90
2022/01/16 00:50:44;;;;;;;45.95;16.73;;;3.80;99.90;;;;;;6277091;22;20004;-89
2022/01/16 00:53:09;;;;;;;61.85;18.52;;;4.10;99.90;;;;;;6303399;22;19999;-89
2022/01/16 00:55:38;;;;;;;48.13;18.52;;;;;;;;;;6303103;22;20424;-89
2022/01/16 00:58:04;;;;;;;42.28;15.10;;;3.80;99.90;;;;;;6275420;22;19999;-89
2022/01/16 01:00:33;;;;;;;56.25;16.80;;;;;;;;;;6302687;22;20053;-88
2022/01/16 01:03:00;;;;;;;32.88;15.40;;;3.80;99.90;;;;;;6302897;22;20452;-89
2022/01/16 01:05:26;;;;;;;40.03;15.73;;;4.50;99.90;;;;;;6302668;22;20003;-89
2022/01/16 01:07:53;;;;;;;61.60;17.10;;;3.90;99.90;;;;;;6303113;22;20500;-90
2022/01/16 01:10:19;;;;;;;68.07;17.60;;;4.10;99.90;;;;;;6303443;22;20002;-89
2022/01/16 01:12:55;;;;;;;34.90;14.18;;;4.80;99.90;;;;;;6303971;22;19999;-89
2022/01/16 01:15:29;;;;;;;34.90;14.00;;;3.70;99.90;;;;;;6275129;22;20027;-89
2022/01/16 01:17:54;;;;;;;35.28;12.88;;;5.20;99.90;;;;;;6275345;22;20006;-89
2022/01/16 01:20:22;;;;;;;33.35;13.95;;;4.60;99.90;;;;;;6270316;22;20012;-90
2022/01/16 01:22:52;;;;;;;34.97;14.02;;;3.90;99.90;;;;;;6273214;22;20000;-89
2022/01/16 01:25:19;;;;;;;57.42;17.40;;;4.70;99.90;;;;;;6272889;22;20343;-88
2022/01/16 01:27:46;;;;;;;31.65;14.32;;;3.70;99.90;;;;;;6272556;22;20083;-92
2022/01/16 01:30:18;;;;;;;26.60;12.65;;;3.70;99.90;;;;;;6273874;22;19995;-89
2022/01/16 01:32:46;;;;;;;40.13;12.77;;;3.80;99.90;;;;;;6273925;22;20107;-90
2022/01/16 01:35:15;;;;;;;27.23;11.73;;;4.30;99.90;;;;;;6274049;22;19999;-88
2022/01/16 01:37:42;;;;;;;28.65;12.02;;;4.20;99.90;;;;;;6272308;22;20395;-90
2022/01/16 01:40:11;;;;;;;33.38;13.88;;;3.70;99.90;;;;;;6273734;22;20026;-88
2022/01/16 01:42:44;;;;;;;25.38;11.68;;;3.70;99.90;;;;;;6273850;22;20007;-90
2022/01/16 01:53:24;;;;;;;35.80;14.25;;;4.10;99.90;;;;;;6273776;22;20065;-89
2022/01/16 01:55:50;;;;;;;42.15;15.02;;;3.70;99.90;;;;;;6273181;22;20004;-90
2022/01/16 01:58:18;;;;;;;30.25;13.77;;;3.70;99.90;;;;;;6273239;22;20011;-89
2022/01/16 02:00:44;;;;;;;39.03;14.02;;;3.80;99.90;;;;;;6273582;22;19999;-89
2022/01/16 02:03:23;;;;;;;26.25;11.95;;;3.80;99.90;;;;;;6272186;22;20379;-89
2022/01/16 02:05:49;;;;;;;35.85;13.75;;;;;;;;;;6272942;22;20003;-90
2022/01/16 02:08:16;;;;;;;43.25;14.98;;;3.80;99.90;;;;;;6272289;22;20470;-89
2022/01/16 02:10:42;;;;;;;35.70;13.57;;;4.30;99.90;;;;;;6272157;22;20257;-89
2022/01/16 02:13:18;;;;;;;30.63;13.68;;;4.00;99.90;;;;;;6272171;22;20004;-90
2022/01/16 02:31:57;;;;;;;27.50;10.68;;;;;;;;;;6304267;22;20073;-88
2022/01/16 02:36:59;;;;;;;29.98;12.60;;;;;;;;;;6304336;22;20382;-90
2022/01/16 02:39:26;;;;;;;23.63;11.95;;;3.80;99.90;;;;;;6275978;22;20013;-89
2022/01/16 02:41:54;;;;;;;29.58;12.23;;;3.80;99.90;;;;;;6278432;22;20069;-90
2022/01/16 02:46:47;;;;;;;45.47;14.38;;;;;;;;;;6304432;22;20014;-90
2022/01/16 02:49:26;;;;;;;35.83;13.23;;;3.90;99.90;;;;;;6277732;22;20007;-89
2022/01/16 02:51:59;;;;;;;37.35;14.00;;;3.90;99.90;;;;;;6312665;22;20000;-90
2022/01/16 02:54:27;;;;;;;30.10;13.02;;;3.90;99.90;;;;;;6286047;22;19999;-91
2022/01/16 02:56:54;;;;;;;30.33;14.15;;;4.50;99.90;;;;;;6315843;22;20003;-89
2022/01/16 02:59:21;;;;;;;36.33;14.32;;;4.00;99.90;;;;;;6281432;22;20086;-90
2022/01/16 03:01:48;;;;;;;36.13;14.55;;;4.00;99.90;;;;;;6276455;22;20003;-90
2022/01/16 03:04:16;;;;;;;41.40;11.93;;;3.90;99.90;;;;;;6303756;22;20003;-89
2022/01/16 03:06:41;;;;;;;26.77;11.57;;;4.00;99.90;;;;;;6304222;22;20010;-90
2022/01/16 03:09:08;;;;;;;44.45;12.48;;;;;;;;;;6304181;22;20003;-89
2022/01/16 03:11:45;;;;;;;23.65;11.02;;;3.90;99.90;;;;;;6276939;22;20506;-88
2022/01/16 03:14:13;;;;;;;20.30;8.85;;;3.90;99.90;;;;;;6303908;22;20394;-89
2022/01/16 03:16:43;;;;;;;23.20;11.10;;;3.90;99.90;;;;;;6303787;22;19996;-89
2022/01/16 03:21:57;;;;;;;17.08;8.52;;;4.50;99.90;;;;;;6273832;22;20355;-91
2022/01/16 03:24:27;;;;;;;24.10;10.07;;;4.00;99.90;;;;;;6273901;22;20079;-91
2022/01/16 03:26:55;;;;;;;18.15;9.10;;;4.00;99.90;;;;;;6272268;22;20097;-90
2022/01/16 03:29:21;;;;;;;25.53;10.03;;;;;;;;;;6271474;22;20007;-90
2022/01/16 03:31:47;;;;;;;20.33;9.57;;;4.00;99.90;;;;;;6271383;22;20257;-90
2022/01/16 03:34:13;;;;;;;19.77;8.65;;;4.30;99.90;;;;;;6273099;22;20027;-89
2022/01/16 03:36:39;;;;;;;19.70;8.93;;;4.00;99.90;;;;;;6272648;22;20000;-90
2022/01/16 03:39:04;;;;;;;20.88;9.05;;;5.00;99.90;;;;;;6272174;22;20034;-90
2022/01/16 03:41:30;;;;;;;17.20;8.50;;;4.80;99.90;;;;;;6271152;22;20004;-90
2022/01/16 03:44:02;;;;;;;22.50;9.38;;;4.20;99.90;;;;;;6273688;22;20000;-91
2022/01/16 03:46:34;;;;;;;18.60;9.75;;;4.40;99.90;;;;;;6271235;22;20341;-90
2022/01/16 03:49:09;;;;;;;22.50;9.38;;;4.80;99.90;;;;;;6272081;22;20087;-91
2022/01/16 03:51:36;;;;;;;45.42;10.00;;;;;;;;;;6270496;22;19999;-91
2022/01/16 03:54:03;;;;;;;17.80;8.60;;;4.20;99.90;;;;;;6271268;22;20014;-91
2022/01/16 03:56:29;;;;;;;74.93;11.00;;;4.20;99.90;;;;;;6271185;22;20008;-89
2022/01/16 03:58:55;;;;;;;23.77;9.32;;;4.20;99.90;;;;;;6272685;22;20004;-91
2022/01/16 04:01:21;;;;;;;25.15;9.10;;;4.10;99.90;;;;;;6271576;22;20004;-91
2022/01/16 04:03:47;;;;;;;28.25;9.48;;;4.30;99.90;;;;;;6272576;22;20006;-89
2022/01/16 04:06:13;;;;;;;20.33;8.55;;;;;;;;;;6272065;22;20007;-88
2022/01/16 04:08:39;;;;;;;35.65;9.70;;;4.10;99.90;;;;;;6272402;22;20382;-89
2022/01/16 04:11:04;;;;;;;30.58;9.10;;;4.80;99.90;;;;;;6270937;22;20063;-90
2022/01/16 04:13:32;;;;;;;24.52;9.25;;;4.10;99.90;;;;;;6272264;22;20432;-89
2022/01/16 04:15:58;;;;;;;25.63;7.95;;;5.00;99.90;;;;;;6273361;22;20027;-91
2022/01/16 04:18:24;;;;;;;20.65;8.55;;;;;;;;;;6272474;22;20493;-90
2022/01/16 04:20:50;;;;;;;33.17;9.10;;;4.10;99.90;;;;;;6300376;22;20017;-89
2022/01/16 04:23:16;;;;;;;31.75;8.68;;;;;;;;;;6302883;22;19999;-90
2022/01/16 04:25:42;;;;;;;24.85;8.70;;;4.10;99.90;;;;;;6276141;22;20026;-90
2022/01/16 04:28:07;;;;;;;27.90;9.13;;;4.50;99.90;;;;;;6276018;22;20451;-89
2022/01/16 04:30:34;;;;;;;24.92;8.63;;;;;;;;;;6276862;22;20007;-91
2022/01/16 04:33:00;;;;;;;41.90;9.85;;;4.10;99.90;;;;;;6276724;22;20003;-88
2022/01/16 04:35:26;;;;;;;27.70;8.57;;;4.10;99.90;;;;;;6276688;22;20038;-91
2022/01/16 04:37:51;;;;;;;29.17;8.63;;;4.00;99.90;;;;;;6276053;22;20049;-90
2022/01/16 04:40:17;;;;;;;40.53;9.35;;;4.00;99.90;;;;;;6275736;22;20011;-90
2022/01/16 04:45:27;;;;;;;37.67;8.77;;;4.20;99.90;;;;;;6302109;22;20015;-89
2022/01/16 04:47:55;;;;;;;28.80;7.70;;;4.50;99.90;;;;;;6275054;22;20015;-88
2022/01/16 04:50:22;;;;;;;32.25;8.38;;;4.30;99.90;;;;;;6302137;22;20292;-89
2022/01/16 04:52:49;;;;;;;16.90;8.60;;;4.00;99.90;;;;;;6275020;22;20351;-91
2022/01/16 04:55:16;;;;;;;15.80;7.72;;;5.00;99.90;;;;;;6302830;22;19995;-88
2022/01/16 04:57:42;;;;;;;20.38;8.13;;;4.10;99.90;;;;;;6302540;22;20003;-90
2022/01/16 05:00:11;;;;;;;40.50;8.82;;;5.00;99.90;;;;;;6274664;22;20003;-89
2022/01/16 05:02:37;;;;;;;28.30;8.82;;;4.10;99.90;;;;;;6274845;22;20003;-89
2022/01/16 05:05:04;;;;;;;29.63;9.23;;;4.30;99.90;;;;;;6274480;22;20014;-90
2022/01/16 05:07:29;;;;;;;18.75;8.32;;;4.10;99.90;;;;;;6275989;22;20097;-91
2022/01/16 05:09:55;;;;;;;22.52;8.95;;;3.90;99.90;;;;;;6275614;22;20000;-90
2022/01/16 05:12:30;;;;;;;14.75;8.50;;;4.50;99.90;;;;;;6275661;22;20009;-89
2022/01/16 05:17:40;;;;;;;23.70;8.00;;;4.20;99.90;;;;;;6302814;22;20014;-89
2022/01/16 05:20:06;;;;;;;15.25;7.88;;;5.40;99.90;;;;;;6270219;22;20015;-88
2022/01/16 05:22:32;;;;;;;40.42;9.38;;;4.20;99.90;;;;;;6271978;22;20014;-89
2022/01/16 05:24:58;;;;;;;28.08;9.25;;;4.80;99.90;;;;;;6277461;22;20000;-90
2022/01/16 05:27:23;;;;;;;27.48;7.93;;;4.20;99.90;;;;;;6283198;22;20094;-91
2022/01/16 05:29:49;;;;;;;20.00;8.07;;;4.20;99.90;;;;;;6285116;22;20113;-89
2022/01/16 05:32:16;;;;;;;52.47;9.02;;;4.70;99.90;;;;;;6281666;22;20043;-87
2022/01/16 05:34:42;;;;;;;33.42;9.88;;;4.20;99.90;;;;;;6271402;22;20026;-92
2022/01/16 05:37:08;;;;;;;30.63;9.40;;;4.40;99.90;;;;;;6272091;22;20076;-90
2022/01/16 05:39:34;;;;;;;23.98;8.20;;;4.30;99.90;;;;;;6271733;22;20448;-90
2022/01/16 05:42:01;;;;;;;20.23;8.55;;;4.50;99.90;;;;;;6272817;22;20010;-89
2022/01/16 05:44:27;;;;;;;53.22;10.18;;;;;;;;;;6272248;22;19996;-89
2022/01/16 05:46:53;;;;;;;31.42;9.48;;;;;;;;;;6271899;22;20283;-90
2022/01/16 05:49:19;;;;;;;33.47;8.73;;;4.10;99.90;;;;;;6270588;22;20088;-89
2022/01/16 05:51:45;;;;;;;24.65;8.05;;;;;;;;;;6272216;22;20440;-89
2022/01/16 05:54:10;;;;;;;24.83;8.50;;;4.30;99.90;;;;;;6269234;22;20746;-90
2022/01/16 05:56:36;;;;;;;37.08;8.00;;;4.20;99.90;;;;;;6270171;22;20535;-89
2022/01/16 05:59:02;;;;;;;16.60;7.60;;;;;;;;;;6270997;22;20000;-91
2022/01/16 06:01:28;;;;;;;14.82;6.53;;;4.10;99.90;;;;;;6271018;22;20003;-91
2022/01/16 06:03:53;;;;;;;21.70;7.80;;;4.20;99.90;;;;;;6271082;22;20082;-89
2022/01/16 06:06:19;;;;;;;60.60;8.70;;;4.70;99.90;;;;;;6270401;22;20015;-89
2022/01/16 06:08:45;;;;;;;19.33;7.40;;;4.20;99.90;;;;;;6271321;22;20007;-90
2022/01/16 06:11:11;;;;;;;20.10;6.80;;;4.20;99.90;;;;;;6271756;22;20419;-90
2022/01/16 06:13:37;;;;;;;31.58;7.32;;;;;;;;;;6270218;22;20054;-90
2022/01/16 06:16:03;;;;;;;21.70;7.25;;;4.20;99.90;;;;;;6274944;22;19992;-90
2022/01/16 06:18:29;;;;;;;14.73;6.82;;;4.20;99.90;;;;;;6272523;22;20007;-91
2022/01/16 06:20:55;;;;;;;15.73;6.45;;;4.60;99.90;;;;;;6277242;22;20443;-91
2022/01/16 06:23:21;;;;;;;24.65;6.30;;;4.30;99.90;;;;;;6304222;22;19999;-89
2022/01/16 06:25:54;;;;;;;22.77;7.03;;;;;;;;;;6304231;22;19996;-89
2022/01/16 06:28:23;;;;;;;12.30;6.70;;;4.20;99.90;;;;;;6304059;22;20011;-90
2022/01/16 06:30:50;;;;;;;10.65;5.68;;;4.10;99.90;;;;;;6277264;22;20010;-90
2022/01/16 06:33:16;;;;;;;9.75;5.88;;;;;;;;;;6277382;22;20030;-91
2022/01/16 06:35:41;;;;;;;9.38;6.15;;;4.30;99.90;;;;;;6277418;22;20003;-91
2022/01/16 06:38:07;;;;;;;22.55;7.45;;;4.30;99.90;;;;;;6276624;22;20053;-92
2022/01/16 06:40:33;;;;;;;19.80;6.47;;;4.30;99.90;;;;;;6304891;22;20331;-91
2022/01/16 06:42:59;;;;;;;11.63;5.63;;;4.30;99.90;;;;;;6304100;22;20006;-90
2022/01/16 06:45:25;;;;;;;16.30;6.47;;;4.50;99.90;;;;;;6304126;22;20006;-90
2022/01/16 06:47:51;;;;;;;12.65;6.80;;;4.70;99.90;;;;;;6304491;22;20015;-89
2022/01/16 06:50:18;;;;;;;10.68;6.57;;;4.70;99.90;;;;;;6304022;22;19999;-90
2022/01/16 06:52:43;;;;;;;20.30;6.50;;;4.30;99.90;;;;;;6277081;22;20030;-89
2022/01/16 06:55:10;;;;;;;12.80;6.15;;;4.20;99.90;;;;;;6303908;22;20336;-90
2022/01/16 06:57:35;;;;;;;53.42;7.32;;;4.20;99.90;;;;;;6277377;22;20007;-90
2022/01/16 07:00:04;;;;;;;20.52;7.10;;;4.20;99.90;;;;;;6304676;22;20000;-91
2022/01/16 07:02:29;;;;;;;14.90;6.43;;;5.30;99.90;;;;;;6303872;22;19995;-91
2022/01/16 07:04:55;;;;;;;17.67;6.50;;;4.10;99.90;;;;;;6303449;22;20073;-90
2022/01/16 07:07:21;;;;;;;26.90;6.40;;;4.20;99.90;;;;;;6303987;22;20007;-90
2022/01/16 07:09:46;;;;;;;19.25;6.88;;;4.20;99.90;;;;;;6303920;22;19999;-89
2022/01/16 07:12:12;;;;;;;36.92;6.88;;;4.20;99.90;;;;;;6303971;22;20006;-90
2022/01/16 07:14:38;;;;;;;11.13;5.82;;;;;;;;;;6304307;22;20006;-90
2022/01/16 07:17:05;;;;;;;10.52;6.00;;;;;;;;;;6278014;22;20007;-90
2022/01/16 07:19:34;;;;;;;14.68;6.60;;;4.10;99.90;;;;;;6277021;22;20007;-92
2022/01/16 07:21:59;;;;;;;;;;;4.50;99.90;;;;;;6277297;22;20038;-92
2022/01/16 07:24:30;;;;;;;;;;;4.10;99.90;;;;;;6305796;22;20739;-93
2022/01/16 07:26:56;;;;;;;20.10;5.80;;;4.10;99.90;;;;;;6329118;22;19981;-92
2022/01/16 07:29:21;;;;;;;14.32;5.97;;;4.20;99.90;;;;;;6303613;22;19995;-93
2022/01/16 07:31:47;;;;;;;23.70;7.22;;;5.10;99.90;;;;;;6277256;22;20008;-92
2022/01/16 07:34:13;;;;;;;15.05;6.45;;;5.10;99.90;;;;;;6277154;22;20078;-91
2022/01/16 07:36:39;;;;;;;16.92;6.60;;;4.20;99.90;;;;;;6276859;22;19999;-90
2022/01/16 07:39:05;;;;;;;9.43;5.78;;;4.20;99.90;;;;;;6277262;22;20051;-91
2022/01/16 07:41:31;;;;;;;11.70;6.25;;;4.20;99.90;;;;;;6277056;22;20068;-91
2022/01/16 07:43:57;;;;;;;10.77;6.18;;;4.20;99.90;;;;;;6277397;22;20007;-90
2022/01/16 07:46:23;;;;;;;20.85;6.25;;;4.30;99.90;;;;;;6276626;22;19999;-91
2022/01/16 07:48:48;;;;;;;10.52;6.53;;;4.60;99.90;;;;;;6276779;22;20014;-91
2022/01/16 07:51:22;;;;;;;20.88;6.50;;;4.50;99.90;;;;;;6276420;22;20374;-92
2022/01/16 07:53:47;;;;;;;10.90;5.93;;;4.30;99.90;;;;;;6276913;22;20014;-90
2022/01/16 07:56:13;;;;;;;10.65;6.47;;;4.80;99.90;;;;;;6304435;22;20373;-91
2022/01/16 07:58:41;;;;;;;15.48;7.40;;;5.30;99.90;;;;;;6277683;22;20003;-91
2022/01/16 08:01:15;;;;;;;13.80;7.97;;;5.20;99.90;;;;;;6277906;22;20496;-92
2022/01/16 08:03:43;;;;;;;13.32;7.82;;;4.40;99.90;;;;;;6277320;22;20030;-92
2022/01/16 08:06:10;;;;;;;29.05;8.10;;;4.30;99.90;;;;;;6277759;22;20450;-92
2022/01/16 08:08:37;;;;;;;18.63;8.02;;;4.40;99.90;;;;;;6277838;22;20042;-91
2022/01/16 08:11:03;;;;;;;21.88;8.18;;;5.00;99.90;;;;;;6277067;22;20000;-92
2022/01/16 08:13:29;;;;;;;22.67;7.43;;;4.80;99.90;;;;;;6277062;22;20060;-93
2022/01/16 08:15:54;;;;;;;16.88;8.13;;;4.50;99.90;;;;;;6276855;22;20003;-93
2022/01/16 08:18:20;;;;;;;16.05;6.95;;;4.40;99.90;;;;;;6276988;22;20002;-91
2022/01/16 08:20:46;;;;;;;15.98;8.45;;;4.40;99.90;;;;;;6303638;22;20014;-92
2022/01/16 08:23:12;;;;;;;24.45;9.05;;;4.50;99.90;;;;;;6277138;22;20086;-91
2022/01/16 08:25:47;;;;;;;16.52;7.80;;;4.50;99.90;;;;;;6277658;22;20435;-91
2022/01/16 08:28:13;;;;;;;18.30;8.45;;;4.40;99.90;;;;;;6276422;22;20046;-94
2022/01/16 08:30:39;;;;;;;20.67;8.90;;;4.70;99.90;;;;;;6277549;22;20003;-91
2022/01/16 08:33:04;;;;;;;23.52;9.20;;;4.40;99.90;;;;;;6276371;22;20046;-91
2022/01/16 08:35:33;;;;;;;19.58;9.00;;;4.80;99.90;;;;;;6267717;22;20003;-91
2022/01/16 08:37:58;;;;;;;24.30;10.02;;;4.60;99.90;;;;;;6274809;22;19999;-92
2022/01/16 08:40:24;;;;;;;20.98;9.05;;;4.40;99.90;;;;;;6275702;22;20003;-91
2022/01/16 08:42:50;;;;;;;13.77;7.40;;;4.50;99.90;;;;;;6303159;22;20042;-91
2022/01/16 08:45:16;;;;;;;17.23;7.80;;;5.10;99.90;;;;;;6275865;22;20007;-91
2022/01/16 08:47:43;;;;;;;14.65;7.20;;;4.50;99.90;;;;;;6303868;22;20014;-91
2022/01/16 08:50:15;;;;;;;29.90;8.20;;;4.50;99.90;;;;;;6276591;22;20003;-92
2022/01/16 08:52:41;;;;;;;17.27;7.45;;;4.40;99.90;;;;;;6277480;22;20086;-90
2022/01/16 08:55:09;;;;;;;29.17;7.13;;;4.50;99.90;;;;;;6277506;22;20004;-91
2022/01/16 08:57:59;;;;;;;17.40;7.80;;;4.40;99.90;;;;;;6303896;22;20003;-92
2022/01/16 09:00:25;;;;;;;16.58;7.18;;;4.40;99.90;;;;;;6277473;22;20045;-92
2022/01/16 09:02:51;;;;;;;35.28;7.72;;;4.40;99.90;;;;;;6306039;22;19999;-89
2022/01/16 09:05:17;;;;;;;11.13;6.28;;;5.50;99.90;;;;;;6278971;22;20007;-93
2022/01/16 09:07:43;;;;;;;18.80;7.65;;;4.60;99.90;;;;;;6279277;22;20015;-91
2022/01/16 09:10:10;;;;;;;15.15;7.47;;;4.40;99.90;;;;;;6303867;22;20014;-91
2022/01/16 10:26:28;;;;;;;16.05;7.95;;;4.90;99.90;;;;;;6284546;22;20027;-95
2022/01/16 10:40:50;;;;;;;;;;;;;;;;;;;;;
2022/01/16 11:06:12;;;;;;;;;;;;;;;;;;;;;
2022/01/16 11:26:23;;;;;;;19.23;9.98;;;5.70;99.90;;;;;;5851709;24;20327;-90
2022/01/16 11:28:53;;;;;;;17.38;10.50;;;5.70;99.90;;;;;;5992977;23;20422;-91
2022/01/16 11:31:29;;;;;;;16.95;9.90;;;5.70;99.90;;;;;;6099582;23;20011;-90
2022/01/16 11:34:05;;;;;;;16.75;9.80;;;5.70;99.90;;;;;;6185030;23;20008;-90
2022/01/16 11:36:53;;;;;;;17.20;10.20;;;6.00;99.90;;;;;;6142340;23;20029;-92
2022/01/16 11:39:46;;;;;;;;;;;;;;;;;;;;;
2022/01/16 11:42:37;;;;;;;16.77;10.00;;;6.40;99.90;;;;;;6122857;23;20076;-89
2022/01/16 11:45:30;;;;;;;21.92;11.82;;;5.80;99.90;;;;;;6122193;23;20091;-90
2022/01/16 11:48:09;;;;;;;;;;;;;;;;;;;;;
2022/01/16 11:50:46;;;;;;;20.85;10.60;;;6.30;99.90;;;;;;6123240;23;20509;-91
2022/01/16 11:54:19;;;;;;;;;;;;;;;;;;;;;
2022/01/16 11:56:43;;;;;;;22.88;12.52;;;6.00;99.90;;;;;;6125512;23;20090;-93
2022/01/16 11:59:32;;;;;;;24.35;12.80;;;6.20;99.90;;;;;;6126897;23;20079;-91
2022/01/16 12:05:26;;;;;;;23.30;11.88;;;6.20;99.90;;;;;;6177956;23;20005;-91
2022/01/16 12:11:38;;;;;;;27.23;13.85;;;6.20;99.90;;;;;;6083337;23;20007;-92
2022/01/16 12:14:07;;;;;;;31.13;13.60;;;6.30;99.90;;;;;;6177729;23;20031;-90
2022/01/16 12:19:41;;;;;;;34.00;14.27;;;6.30;99.90;;;;;;6184241;23;20016;-90
2022/01/16 12:22:10;;;;;;;36.42;17.80;;;6.40;99.90;;;;;;6152151;23;20001;-92
2022/01/16 12:25:21;;;;;;;27.27;15.15;;;6.40;99.90;;;;;;6151953;23;20369;-90
2022/01/16 12:28:02;;;;;;;27.05;13.25;;;6.50;99.90;;;;;;6177455;23;20055;-91
2022/01/16 12:30:59;;;;;;;;;;;;;;;;;;;;;
2022/01/16 12:34:13;;;;;;;;;;;;;;;;;;;;;
2022/01/16 12:36:39;;;;;;;27.30;13.90;;;6.70;99.90;;;;;;6178503;23;20088;-92
2022/01/16 12:39:11;;;;;;;24.83;14.07;;;6.70;99.90;;;;;;6150841;23;20036;-91
2022/01/16 12:41:43;;;;;;;26.92;14.27;;;6.70;99.90;;;;;;6177515;23;20084;-93
2022/01/16 12:44:28;;;;;;;;;;;;;;;;;;;;;
2022/01/16 12:46:58;;;;;;;34.47;19.35;;;6.80;99.90;;;;;;6178854;23;20076;-91
2022/01/16 13:00:10;;;;;;;28.05;15.43;;;6.80;99.90;;;;;;5950720;24;20502;-92
2022/01/16 13:07:03;;;;;;;;;;;;;;;;;;;;;
2022/01/16 13:10:02;;;;;;;;;;;;;;;;;;;;;
2022/01/16 13:13:04;;;;;;;;;;;;;;;;;;;;;
2022/01/16 13:16:02;;;;;;;;;;;;;;;;;;;;;
2022/01/16 13:18:47;;;;;;;;;;;;;;;;;;;;;
2022/01/16 13:21:31;;;;;;;26.38;13.60;;;7.10;99.90;;;;;;6087580;23;20081;-90
2022/01/16 13:24:03;;;;;;;28.33;13.27;;;7.10;99.90;;;;;;6063204;23;20017;-93
2022/01/16 13:26:30;;;;;;;27.98;13.13;;;7.10;99.90;;;;;;6087373;23;20011;-89
2022/01/16 13:33:03;;;;;;;;;;;;;;;;;;;;;
2022/01/16 13:35:40;;;;;;;;;;;;;;;;;;;;;
2022/01/16 13:48:50;;;;;;;26.08;14.45;;;7.50;99.90;;;;;;5970941;23;20042;-91
2022/01/16 13:52:25;;;;;;;;;;;;;;;;;;;;;
2022/01/16 13:55:04;;;;;;;28.73;15.60;;;7.50;99.90;;;;;;6007791;23;20011;-91
2022/01/16 13:57:31;;;;;;;25.52;15.02;;;7.50;99.90;;;;;;5977395;23;20004;-92
2022/01/16 14:00:19;;;;;;;;;;;;;;;;;;;;;
2022/01/16 14:02:46;;;;;;;;;;;7.50;99.90;;;;;;6178096;23;20080;-92
2022/01/16 14:06:30;;;;;;;24.60;14.23;;;7.60;99.90;;;;;;6151587;23;19983;-92
2022/01/16 14:09:33;;;;;;;;;;;;;;;;;;;;;
2022/01/16 14:12:44;;;;;;;32.30;14.80;;;7.50;99.90;;;;;;6210680;23;20084;-93
2022/01/16 14:16:01;;;;;;;;;;;;;;;;;;;;;
2022/01/16 14:22:12;;;;;;;;;;;;;;;;;;;;;
2022/01/16 14:25:22;;;;;;;;;;;;;;;;;;;;;
2022/01/16 14:28:09;;;;;;;;;;;;;;;;;;;;;
2022/01/16 15:16:10;;;;;;;35.42;19.95;;;8.00;99.90;;;;;;5796777;24;20488;-90
2022/01/16 15:18:38;;;;;;;34.75;20.27;;;8.10;99.90;;;;;;5865078;24;20012;-92
2022/01/16 15:21:04;;;;;;;37.30;20.08;;;8.10;99.90;;;;;;5866546;23;20013;-90
2022/01/16 15:23:32;;;;;;;35.03;20.25;;;8.10;99.90;;;;;;6024879;23;20382;-94
2022/01/16 15:25:58;;;;;;;;;;;8.10;99.90;;;;;;6149588;22;20005;-91
2022/01/16 15:28:27;;;;;;;37.03;21.15;;;8.20;99.90;;;;;;6148769;23;20252;-92
2022/01/16 15:31:03;;;;;;;34.95;20.13;;;8.20;99.90;;;;;;6149674;23;20118;-91
2022/01/16 15:33:29;;;;;;;31.67;19.13;;;8.10;99.90;;;;;;6176594;23;20001;-92
2022/01/16 15:35:55;;;;;;;34.75;19.63;;;8.20;99.90;;;;;;6150533;23;20011;-90
2022/01/16 15:38:45;;;;;;;32.55;18.73;;;8.20;99.90;;;;;;6177140;23;20359;-92
2022/01/16 15:41:10;;;;;;;31.30;18.17;;;8.20;99.90;;;;;;6151083;23;20031;-91
2022/01/16 15:43:36;;;;;;;32.65;18.48;;;8.30;99.90;;;;;;6151388;23;20449;-91
2022/01/16 15:46:02;;;;;;;28.15;17.30;;;8.30;99.90;;;;;;6152923;22;20001;-90
2022/01/16 15:48:28;;;;;;;31.35;18.55;;;8.30;99.90;;;;;;6153567;23;20088;-89
2022/01/16 15:50:54;;;;;;;33.65;18.77;;;8.30;99.90;;;;;;6151227;23;20012;-88
2022/01/16 15:53:21;;;;;;;33.53;17.77;;;8.30;99.90;;;;;;6150289;23;20066;-90
2022/01/16 15:55:47;;;;;;;32.88;18.98;;;8.30;99.90;;;;;;6149945;23;20015;-90
2022/01/16 15:58:14;;;;;;;34.42;17.65;;;8.30;99.90;;;;;;6176615;23;20033;-90
2022/01/16 16:00:47;;;;;;;35.90;19.55;;;8.20;99.90;;;;;;6176115;23;20306;-91
2022/01/16 16:03:14;;;;;;;32.00;18.48;;;8.30;99.90;;;;;;6149952;22;20013;-91
2022/01/16 16:05:40;;;;;;;32.67;18.30;;;8.30;99.90;;;;;;6149649;23;20049;-90
2022/01/16 16:08:06;;;;;;;35.47;18.15;;;8.20;99.90;;;;;;6176370;23;20332;-91
2022/01/16 16:10:34;;;;;;;32.05;19.95;;;8.20;99.90;;;;;;6151015;23;20349;-91
2022/01/16 16:13:01;;;;;;;31.95;18.65;;;8.30;99.90;;;;;;6150521;23;20005;-89
2022/01/16 16:15:27;;;;;;;35.80;19.55;;;8.30;99.90;;;;;;6150574;23;20090;-93
2022/01/16 16:17:54;;;;;;;37.88;22.15;;;8.30;99.90;;;;;;6149857;23;20347;-90
2022/01/16 16:20:21;;;;;;;37.03;21.27;;;8.40;99.90;;;;;;6150374;23;20009;-90
2022/01/16 16:22:56;;;;;;;35.55;22.35;;;8.30;99.90;;;;;;6149374;23;20046;-92
2022/01/16 16:25:22;;;;;;;39.17;22.33;;;8.30;99.90;;;;;;6149897;23;20005;-90
2022/01/16 16:27:50;;;;;;;42.67;23.48;;;8.30;99.90;;;;;;6149311;23;20013;-89
2022/01/16 16:30:17;;;;;;;37.28;22.38;;;8.30;99.90;;;;;;6176300;23;20032;-90
2022/01/16 16:32:43;;;;;;;40.13;23.10;;;8.30;99.90;;;;;;6149858;23;20017;-90
2022/01/16 16:35:11;;;;;;;39.60;22.60;;;8.30;99.90;;;;;;6176126;23;20038;-90
2022/01/16 16:37:37;;;;;;;40.15;24.35;;;8.30;99.90;;;;;;6176065;23;20046;-91
2022/01/16 16:40:05;;;;;;;41.58;23.15;;;8.30;99.90;;;;;;6177219;23;20001;-89
2022/01/16 16:46:04;;;;;;;47.85;25.25;;;8.30;99.90;;;;;;6167237;23;20020;-90
2022/01/16 16:48:53;;;;;;;35.28;23.17;;;8.20;99.90;;;;;;6178470;23;20033;-89
2022/01/16 16:51:43;;;;;;;47.40;26.67;;;8.20;99.90;;;;;;6177526;23;20009;-90
2022/01/16 16:54:25;;;;;;;46.28;28.52;;;8.20;99.90;;;;;;6204323;23;20005;-88
2022/01/16 17:00:55;;;;;;;43.47;27.23;;;8.10;99.90;;;;;;6097484;23;20022;-90
2022/01/16 17:03:49;;;;;;;51.83;28.50;;;8.00;99.90;;;;;;6263499;22;20022;-90
2022/01/16 17:13:05;;;;;;;51.15;28.02;;;7.90;99.90;;;;;;6068514;23;20003;-92
2022/01/16 20:45:17;;;;;;;27.17;14.95;;;;;;;;;;6118839;22;3795019;-90
2022/01/16 20:48:55;;;;;;;;;;;;;;;;;;;;;
2022/01/16 20:51:42;;;;;;;;;;;;;;;;;;;;;
2022/01/16 20:55:02;;;;;;;;;;;;;;;;;;;;;
2022/01/16 21:00:36;;;;;;;34.38;20.20;;;7.30;99.90;;;;;;6243978;22;20003;-90
2022/01/16 21:06:17;;;;;;;64.25;30.40;;;7.20;99.90;;;;;;6179114;23;20012;-91
2022/01/16 21:08:48;;;;;;;53.70;28.25;;;7.10;99.90;;;;;;6270798;22;20073;-92
2022/01/16 21:11:27;;;;;;;;;;;;;;;;;;;;;
2022/01/16 21:14:00;;;;;;;54.63;31.00;;;7.00;99.90;;;;;;6271923;22;20087;-91
2022/01/16 21:16:25;;;;;;;50.13;27.08;;;6.80;99.90;;;;;;6272099;22;20412;-91
2022/01/16 21:18:51;;;;;;;80.07;34.72;;;;;;;;;;6270046;22;20083;-91
2022/01/16 21:21:37;;;;;;;51.95;26.00;;;6.80;99.90;;;;;;6270647;22;20028;-91
2022/01/16 21:24:08;;;;;;;62.83;31.08;;;6.90;99.90;;;;;;6270146;22;20007;-93
2022/01/16 21:26:42;;;;;;;65.90;33.30;;;6.90;99.90;;;;;;6269556;22;20015;-90
2022/01/16 21:29:11;;;;;;;59.38;31.00;;;7.00;99.90;;;;;;6270748;22;20369;-92
2022/01/16 21:31:36;;;;;;;49.78;27.05;;;7.30;99.90;;;;;;6272109;22;20050;-91
2022/01/16 21:34:09;;;;;;;58.17;27.73;;;7.40;99.90;;;;;;6270457;22;20012;-92
2022/01/16 21:36:41;;;;;;;51.83;27.08;;;7.50;99.90;;;;;;6270247;22;20008;-92
2022/01/16 21:39:15;;;;;;;51.03;25.95;;;7.40;99.90;;;;;;6270370;22;20032;-91
2022/01/16 21:41:50;;;;;;;40.20;21.38;;;7.40;99.90;;;;;;6270713;22;20011;-91
2022/01/16 21:44:16;;;;;;;34.50;20.85;;;7.40;99.90;;;;;;6272131;22;20032;-92
2022/01/16 21:47:07;;;;;;;30.95;18.50;;;7.40;99.90;;;;;;6245405;22;19996;-92